sensor_id;sensor_type;location;lat;lon;timestamp;pressure;altitude;pressure_sealevel;temperature;humidity
47330;BME280;33060;50.178;7.570;2023-12-29T00:01:32;96735.69;;;9.00;97.43
47330;BME280;33060;50.178;7.570;2023-12-29T00:04:00;96731.66;;;9.20;97.05
47330;BME280;33060;50.178;7.570;2023-12-29T00:06:27;96733.88;;;9.26;96.85
47330;BME280;33060;50.178;7.570;2023-12-29T00:08:54;96732.28;;;9.36;96.66
47330;BME280;33060;50.178;7.570;2023-12-29T00:11:20;96748.41;;;9.19;98.52
47330;BME280;33060;50.178;7.570;2023-12-29T00:13:47;96747.25;;;9.10;98.50
47330;BME280;33060;50.178;7.570;2023-12-29T00:16:15;96749.34;;;9.18;98.34
47330;BME280;33060;50.178;7.570;2023-12-29T00:18:42;96741.34;;;8.94;100.00
47330;BME280;33060;50.178;7.570;2023-12-29T00:21:09;96728.53;;;9.15;100.00
47330;BME280;33060;50.178;7.570;2023-12-29T00:23:35;96719.34;;;9.33;99.13
47330;BME280;33060;50.178;7.570;2023-12-29T00:26:02;96727.44;;;9.43;98.04
47330;BME280;33060;50.178;7.570;2023-12-29T00:28:29;96725.53;;;9.45;97.87
47330;BME280;33060;50.178;7.570;2023-12-29T00:30:56;96721.09;;;9.58;97.03
47330;BME280;33060;50.178;7.570;2023-12-29T00:33:29;96719.69;;;9.65;96.52
47330;BME280;33060;50.178;7.570;2023-12-29T00:35:58;96741.25;;;9.70;95.62
47330;BME280;33060;50.178;7.570;2023-12-29T00:38:26;96730.19;;;9.41;97.63
47330;BME280;33060;50.178;7.570;2023-12-29T00:40:54;96727.31;;;9.57;96.24
47330;BME280;33060;50.178;7.570;2023-12-29T00:43:21;96736.63;;;9.74;96.09
47330;BME280;33060;50.178;7.570;2023-12-29T00:45:49;96727.44;;;9.79;94.25
47330;BME280;33060;50.178;7.570;2023-12-29T00:48:16;96733.19;;;9.60;94.61
47330;BME280;33060;50.178;7.570;2023-12-29T00:50:43;96729.09;;;9.80;93.91
47330;BME280;33060;50.178;7.570;2023-12-29T00:53:09;96734.75;;;9.63;94.94
47330;BME280;33060;50.178;7.570;2023-12-29T00:55:36;96738.63;;;9.70;93.47
47330;BME280;33060;50.178;7.570;2023-12-29T00:58:03;96740.19;;;9.73;94.01
47330;BME280;33060;50.178;7.570;2023-12-29T01:00:30;96721.44;;;9.77;93.33
47330;BME280;33060;50.178;7.570;2023-12-29T01:02:57;96724.53;;;9.95;92.46
47330;BME280;33060;50.178;7.570;2023-12-29T01:05:24;96721.78;;;9.97;91.77
47330;BME280;33060;50.178;7.570;2023-12-29T01:07:50;96718.56;;;9.80;92.34
47330;BME280;33060;50.178;7.570;2023-12-29T01:10:17;96723.28;;;9.88;92.87
47330;BME280;33060;50.178;7.570;2023-12-29T01:12:44;96722.97;;;9.93;92.16
47330;BME280;33060;50.178;7.570;2023-12-29T01:15:11;96718.00;;;10.01;92.85
47330;BME280;33060;50.178;7.570;2023-12-29T01:17:37;96715.16;;;10.15;91.78
47330;BME280;33060;50.178;7.570;2023-12-29T01:20:05;96711.03;;;9.76;93.80
47330;BME280;33060;50.178;7.570;2023-12-29T01:22:32;96706.44;;;9.90;93.82
47330;BME280;33060;50.178;7.570;2023-12-29T01:24:59;96704.91;;;9.75;95.09
47330;BME280;33060;50.178;7.570;2023-12-29T01:27:27;96706.41;;;9.67;95.27
47330;BME280;33060;50.178;7.570;2023-12-29T01:29:54;96701.34;;;10.00;94.19
47330;BME280;33060;50.178;7.570;2023-12-29T01:32:21;96694.72;;;9.95;93.46
47330;BME280;33060;50.178;7.570;2023-12-29T01:34:48;96687.31;;;9.76;94.74
47330;BME280;33060;50.178;7.570;2023-12-29T01:37:15;96695.78;;;9.92;94.38
47330;BME280;33060;50.178;7.570;2023-12-29T01:39:42;96697.00;;;9.75;96.14
47330;BME280;33060;50.178;7.570;2023-12-29T01:42:09;96684.06;;;9.96;94.99
47330;BME280;33060;50.178;7.570;2023-12-29T01:44:38;96690.56;;;9.79;95.70
47330;BME280;33060;50.178;7.570;2023-12-29T01:47:25;96684.44;;;10.03;94.79
47330;BME280;33060;50.178;7.570;2023-12-29T01:49:52;96680.84;;;10.04;93.98
47330;BME280;33060;50.178;7.570;2023-12-29T01:52:19;96676.00;;;9.86;95.15
47330;BME280;33060;50.178;7.570;2023-12-29T01:54:49;96665.72;;;9.71;96.00
47330;BME280;33060;50.178;7.570;2023-12-29T01:57:16;96677.28;;;9.81;96.25
47330;BME280;33060;50.178;7.570;2023-12-29T01:59:43;96672.38;;;10.11;93.84
47330;BME280;33060;50.178;7.570;2023-12-29T02:02:12;96683.63;;;10.02;94.83
47330;BME280;33060;50.178;7.570;2023-12-29T02:04:40;96680.63;;;10.07;95.72
47330;BME280;33060;50.178;7.570;2023-12-29T02:07:07;96683.72;;;9.77;97.40
47330;BME280;33060;50.178;7.570;2023-12-29T02:09:34;96688.22;;;9.87;96.39
47330;BME280;33060;50.178;7.570;2023-12-29T02:12:02;96690.69;;;10.02;96.46
47330;BME280;33060;50.178;7.570;2023-12-29T02:14:29;96681.84;;;10.14;94.96
47330;BME280;33060;50.178;7.570;2023-12-29T02:17:07;96693.63;;;9.97;96.89
47330;BME280;33060;50.178;7.570;2023-12-29T02:22:08;96692.19;;;9.93;97.38
47330;BME280;33060;50.178;7.570;2023-12-29T02:24:35;96683.06;;;9.86;98.50
47330;BME280;33060;50.178;7.570;2023-12-29T02:29:33;96681.78;;;9.91;98.49
47330;BME280;33060;50.178;7.570;2023-12-29T02:32:00;96688.25;;;9.99;97.70
47330;BME280;33060;50.178;7.570;2023-12-29T02:34:32;96686.69;;;9.72;98.22
47330;BME280;33060;50.178;7.570;2023-12-29T02:37:01;96676.38;;;9.69;99.73
47330;BME280;33060;50.178;7.570;2023-12-29T02:39:29;96685.38;;;9.90;98.35
47330;BME280;33060;50.178;7.570;2023-12-29T02:41:56;96680.47;;;9.97;98.01
47330;BME280;33060;50.178;7.570;2023-12-29T02:44:22;96682.06;;;10.00;99.11
47330;BME280;33060;50.178;7.570;2023-12-29T02:46:49;96680.19;;;10.13;97.90
47330;BME280;33060;50.178;7.570;2023-12-29T02:49:17;96692.00;;;10.07;97.87
47330;BME280;33060;50.178;7.570;2023-12-29T02:51:44;96681.53;;;9.95;98.67
47330;BME280;33060;50.178;7.570;2023-12-29T02:54:12;96677.66;;;9.87;99.83
47330;BME280;33060;50.178;7.570;2023-12-29T02:56:39;96674.50;;;10.06;97.52
47330;BME280;33060;50.178;7.570;2023-12-29T02:59:06;96675.00;;;10.00;98.53
47330;BME280;33060;50.178;7.570;2023-12-29T03:01:33;96671.97;;;9.94;98.88
47330;BME280;33060;50.178;7.570;2023-12-29T03:04:01;96666.00;;;10.03;98.80
47330;BME280;33060;50.178;7.570;2023-12-29T03:06:27;96673.63;;;9.95;98.57
47330;BME280;33060;50.178;7.570;2023-12-29T03:08:54;96662.94;;;10.09;98.27
47330;BME280;33060;50.178;7.570;2023-12-29T03:11:21;96661.81;;;10.00;98.01
47330;BME280;33060;50.178;7.570;2023-12-29T03:13:47;96661.81;;;9.76;99.72
47330;BME280;33060;50.178;7.570;2023-12-29T03:16:14;96669.56;;;9.90;99.43
47330;BME280;33060;50.178;7.570;2023-12-29T03:18:41;96665.88;;;10.04;99.02
47330;BME280;33060;50.178;7.570;2023-12-29T03:21:09;96655.19;;;9.95;97.93
47330;BME280;33060;50.178;7.570;2023-12-29T03:23:36;96659.91;;;10.02;96.66
47330;BME280;33060;50.178;7.570;2023-12-29T03:26:02;96651.19;;;10.13;96.82
47330;BME280;33060;50.178;7.570;2023-12-29T03:28:29;96656.97;;;10.18;97.03
47330;BME280;33060;50.178;7.570;2023-12-29T03:30:56;96656.09;;;9.82;97.55
47330;BME280;33060;50.178;7.570;2023-12-29T03:33:23;96648.44;;;10.14;97.37
47330;BME280;33060;50.178;7.570;2023-12-29T03:35:49;96644.56;;;10.07;97.92
47330;BME280;33060;50.178;7.570;2023-12-29T03:38:16;96636.72;;;9.83;99.80
47330;BME280;33060;50.178;7.570;2023-12-29T03:40:43;96644.38;;;10.10;97.41
47330;BME280;33060;50.178;7.570;2023-12-29T03:43:10;96642.69;;;10.09;96.70
47330;BME280;33060;50.178;7.570;2023-12-29T03:45:36;96647.81;;;10.00;98.28
47330;BME280;33060;50.178;7.570;2023-12-29T03:48:03;96654.31;;;9.83;99.17
47330;BME280;33060;50.178;7.570;2023-12-29T03:50:31;96650.72;;;10.08;98.99
47330;BME280;33060;50.178;7.570;2023-12-29T03:52:57;96643.00;;;10.05;97.79
47330;BME280;33060;50.178;7.570;2023-12-29T03:55:25;96634.41;;;9.79;100.00
47330;BME280;33060;50.178;7.570;2023-12-29T03:57:52;96626.22;;;9.71;100.00
47330;BME280;33060;50.178;7.570;2023-12-29T04:00:19;96633.16;;;9.72;100.00
47330;BME280;33060;50.178;7.570;2023-12-29T04:02:45;96624.88;;;10.24;98.41
47330;BME280;33060;50.178;7.570;2023-12-29T04:05:12;96633.25;;;10.18;97.20
47330;BME280;33060;50.178;7.570;2023-12-29T04:07:39;96636.75;;;9.95;98.60
47330;BME280;33060;50.178;7.570;2023-12-29T04:10:07;96634.50;;;10.01;98.03
47330;BME280;33060;50.178;7.570;2023-12-29T04:12:35;96637.25;;;10.00;98.90
47330;BME280;33060;50.178;7.570;2023-12-29T04:15:05;96639.19;;;9.74;99.80
47330;BME280;33060;50.178;7.570;2023-12-29T04:17:32;96651.88;;;9.80;100.00
47330;BME280;33060;50.178;7.570;2023-12-29T04:19:59;96633.41;;;9.93;99.36
47330;BME280;33060;50.178;7.570;2023-12-29T04:22:26;96629.38;;;9.76;100.00
47330;BME280;33060;50.178;7.570;2023-12-29T04:24:53;96628.00;;;9.46;100.00
47330;BME280;33060;50.178;7.570;2023-12-29T04:27:20;96629.09;;;9.91;99.55
47330;BME280;33060;50.178;7.570;2023-12-29T04:29:47;96626.53;;;9.90;100.00
47330;BME280;33060;50.178;7.570;2023-12-29T04:32:15;96622.31;;;9.76;100.00
47330;BME280;33060;50.178;7.570;2023-12-29T04:34:43;96614.38;;;10.00;100.00
47330;BME280;33060;50.178;7.570;2023-12-29T04:37:10;96623.34;;;9.98;99.70
47330;BME280;33060;50.178;7.570;2023-12-29T04:39:38;96612.66;;;9.64;100.00
47330;BME280;33060;50.178;7.570;2023-12-29T04:42:05;96604.94;;;9.74;100.00
47330;BME280;33060;50.178;7.570;2023-12-29T04:44:32;96615.78;;;9.93;100.00
47330;BME280;33060;50.178;7.570;2023-12-29T04:46:58;96628.84;;;9.95;100.00
47330;BME280;33060;50.178;7.570;2023-12-29T04:49:46;96619.28;;;9.70;100.00
47330;BME280;33060;50.178;7.570;2023-12-29T04:52:13;96628.53;;;9.99;100.00
47330;BME280;33060;50.178;7.570;2023-12-29T04:54:39;96631.38;;;9.96;100.00
47330;BME280;33060;50.178;7.570;2023-12-29T04:57:06;96631.25;;;9.98;99.73
47330;BME280;33060;50.178;7.570;2023-12-29T04:59:33;96629.09;;;9.91;100.00
47330;BME280;33060;50.178;7.570;2023-12-29T05:01:59;96636.63;;;9.96;100.00
47330;BME280;33060;50.178;7.570;2023-12-29T05:04:26;96642.97;;;9.70;100.00
47330;BME280;33060;50.178;7.570;2023-12-29T05:06:53;96633.44;;;10.04;100.00
47330;BME280;33060;50.178;7.570;2023-12-29T05:09:20;96639.63;;;9.91;100.00
47330;BME280;33060;50.178;7.570;2023-12-29T05:11:47;96635.56;;;9.99;100.00
47330;BME280;33060;50.178;7.570;2023-12-29T05:14:13;96631.56;;;9.82;100.00
47330;BME280;33060;50.178;7.570;2023-12-29T05:16:44;96632.59;;;9.79;100.00
47330;BME280;33060;50.178;7.570;2023-12-29T05:19:11;96626.50;;;9.79;100.00
47330;BME280;33060;50.178;7.570;2023-12-29T05:21:37;96622.88;;;9.69;100.00
47330;BME280;33060;50.178;7.570;2023-12-29T05:24:04;96614.44;;;9.87;100.00
47330;BME280;33060;50.178;7.570;2023-12-29T05:26:32;96618.28;;;9.83;100.00
47330;BME280;33060;50.178;7.570;2023-12-29T05:28:59;96614.28;;;10.13;100.00
47330;BME280;33060;50.178;7.570;2023-12-29T05:31:26;96622.47;;;9.62;100.00
47330;BME280;33060;50.178;7.570;2023-12-29T05:33:53;96624.94;;;10.00;100.00
47330;BME280;33060;50.178;7.570;2023-12-29T05:36:22;96616.59;;;9.82;100.00
47330;BME280;33060;50.178;7.570;2023-12-29T05:38:48;96617.66;;;9.80;100.00
47330;BME280;33060;50.178;7.570;2023-12-29T05:41:15;96618.28;;;9.83;100.00
47330;BME280;33060;50.178;7.570;2023-12-29T05:43:42;96614.59;;;9.97;100.00
47330;BME280;33060;50.178;7.570;2023-12-29T05:46:10;96624.72;;;9.79;100.00
47330;BME280;33060;50.178;7.570;2023-12-29T05:48:40;96614.53;;;9.75;100.00
47330;BME280;33060;50.178;7.570;2023-12-29T05:51:10;96611.72;;;9.65;100.00
47330;BME280;33060;50.178;7.570;2023-12-29T05:53:42;96607.19;;;10.02;100.00
47330;BME280;33060;50.178;7.570;2023-12-29T05:56:13;96613.69;;;9.74;100.00
47330;BME280;33060;50.178;7.570;2023-12-29T05:58:41;96606.34;;;9.90;100.00
47330;BME280;33060;50.178;7.570;2023-12-29T06:01:09;96611.94;;;9.86;100.00
47330;BME280;33060;50.178;7.570;2023-12-29T06:03:37;96616.66;;;9.70;100.00
47330;BME280;33060;50.178;7.570;2023-12-29T06:06:04;96625.63;;;9.67;100.00
47330;BME280;33060;50.178;7.570;2023-12-29T06:08:30;96620.78;;;9.61;100.00
47330;BME280;33060;50.178;7.570;2023-12-29T06:10:57;96618.59;;;9.79;100.00
47330;BME280;33060;50.178;7.570;2023-12-29T06:13:24;96618.03;;;9.86;100.00
47330;BME280;33060;50.178;7.570;2023-12-29T06:15:50;96629.56;;;9.73;100.00
47330;BME280;33060;50.178;7.570;2023-12-29T06:18:17;96617.97;;;9.99;100.00
47330;BME280;33060;50.178;7.570;2023-12-29T06:20:44;96625.94;;;9.86;100.00
47330;BME280;33060;50.178;7.570;2023-12-29T06:23:11;96617.88;;;10.01;100.00
47330;BME280;33060;50.178;7.570;2023-12-29T06:25:37;96617.06;;;10.11;100.00
47330;BME280;33060;50.178;7.570;2023-12-29T06:28:06;96615.22;;;10.01;100.00
47330;BME280;33060;50.178;7.570;2023-12-29T06:30:33;96617.53;;;9.81;100.00
47330;BME280;33060;50.178;7.570;2023-12-29T06:33:00;96617.47;;;9.94;100.00
47330;BME280;33060;50.178;7.570;2023-12-29T06:35:27;96612.78;;;9.86;100.00
47330;BME280;33060;50.178;7.570;2023-12-29T06:37:54;96614.97;;;9.93;100.00
47330;BME280;33060;50.178;7.570;2023-12-29T06:40:21;96607.00;;;9.81;100.00
47330;BME280;33060;50.178;7.570;2023-12-29T06:42:47;96606.09;;;9.94;100.00
47330;BME280;33060;50.178;7.570;2023-12-29T06:45:14;96613.28;;;9.68;100.00
47330;BME280;33060;50.178;7.570;2023-12-29T06:47:41;96608.34;;;9.87;100.00
47330;BME280;33060;50.178;7.570;2023-12-29T06:50:08;96602.34;;;10.20;100.00
47330;BME280;33060;50.178;7.570;2023-12-29T06:52:39;96607.75;;;9.83;100.00
47330;BME280;33060;50.178;7.570;2023-12-29T06:55:06;96614.84;;;9.70;100.00
47330;BME280;33060;50.178;7.570;2023-12-29T06:57:35;96600.72;;;9.71;100.00
47330;BME280;33060;50.178;7.570;2023-12-29T07:00:03;96599.91;;;10.06;100.00
47330;BME280;33060;50.178;7.570;2023-12-29T07:02:30;96605.94;;;10.19;100.00
47330;BME280;33060;50.178;7.570;2023-12-29T07:04:57;96600.13;;;10.03;100.00
47330;BME280;33060;50.178;7.570;2023-12-29T07:07:24;96615.63;;;10.18;100.00
47330;BME280;33060;50.178;7.570;2023-12-29T07:09:51;96605.50;;;10.25;100.00
47330;BME280;33060;50.178;7.570;2023-12-29T07:12:18;96617.19;;;10.21;100.00
47330;BME280;33060;50.178;7.570;2023-12-29T07:14:45;96615.38;;;10.10;100.00
47330;BME280;33060;50.178;7.570;2023-12-29T07:17:12;96621.66;;;9.97;100.00
47330;BME280;33060;50.178;7.570;2023-12-29T07:19:38;96618.78;;;10.24;100.00
47330;BME280;33060;50.178;7.570;2023-12-29T07:22:05;96620.78;;;10.20;100.00
47330;BME280;33060;50.178;7.570;2023-12-29T07:24:33;96618.34;;;10.06;100.00
47330;BME280;33060;50.178;7.570;2023-12-29T07:26:59;96630.38;;;10.21;100.00
47330;BME280;33060;50.178;7.570;2023-12-29T07:29:26;96627.72;;;10.21;100.00
47330;BME280;33060;50.178;7.570;2023-12-29T07:31:53;96615.75;;;10.17;100.00
47330;BME280;33060;50.178;7.570;2023-12-29T07:34:20;96624.44;;;10.30;100.00
47330;BME280;33060;50.178;7.570;2023-12-29T07:36:48;96621.63;;;9.85;100.00
47330;BME280;33060;50.178;7.570;2023-12-29T07:39:15;96621.59;;;10.09;100.00
47330;BME280;33060;50.178;7.570;2023-12-29T07:41:41;96622.75;;;10.29;100.00
47330;BME280;33060;50.178;7.570;2023-12-29T07:44:11;96620.06;;;10.18;100.00
47330;BME280;33060;50.178;7.570;2023-12-29T07:46:40;96624.53;;;9.94;100.00
47330;BME280;33060;50.178;7.570;2023-12-29T07:49:16;96618.41;;;9.82;100.00
47330;BME280;33060;50.178;7.570;2023-12-29T07:51:46;96623.72;;;10.04;100.00
47330;BME280;33060;50.178;7.570;2023-12-29T07:54:13;96618.22;;;10.07;100.00
47330;BME280;33060;50.178;7.570;2023-12-29T07:56:40;96621.44;;;10.00;100.00
47330;BME280;33060;50.178;7.570;2023-12-29T07:59:07;96618.56;;;10.27;100.00
47330;BME280;33060;50.178;7.570;2023-12-29T08:01:34;96625.00;;;9.63;100.00
47330;BME280;33060;50.178;7.570;2023-12-29T08:04:03;96623.44;;;10.20;100.00
47330;BME280;33060;50.178;7.570;2023-12-29T08:06:30;96629.97;;;10.38;100.00
47330;BME280;33060;50.178;7.570;2023-12-29T08:08:57;96627.72;;;10.21;100.00
47330;BME280;33060;50.178;7.570;2023-12-29T08:11:23;96625.16;;;10.32;100.00
47330;BME280;33060;50.178;7.570;2023-12-29T08:13:50;96620.84;;;10.31;100.00
47330;BME280;33060;50.178;7.570;2023-12-29T08:16:17;96621.53;;;10.22;100.00
47330;BME280;33060;50.178;7.570;2023-12-29T08:18:46;96621.94;;;10.05;100.00
47330;BME280;33060;50.178;7.570;2023-12-29T08:21:17;96615.56;;;9.96;100.00
47330;BME280;33060;50.178;7.570;2023-12-29T08:23:46;96624.88;;;9.89;100.00
47330;BME280;33060;50.178;7.570;2023-12-29T08:26:13;96621.94;;;10.05;100.00
47330;BME280;33060;50.178;7.570;2023-12-29T08:28:40;96622.44;;;9.75;100.00
47330;BME280;33060;50.178;7.570;2023-12-29T08:31:07;96617.13;;;9.99;100.00
47330;BME280;33060;50.178;7.570;2023-12-29T08:33:35;96625.94;;;9.86;100.00
47330;BME280;33060;50.178;7.570;2023-12-29T08:36:02;96623.47;;;9.96;100.00
47330;BME280;33060;50.178;7.570;2023-12-29T08:38:30;96623.69;;;9.93;100.00
47330;BME280;33060;50.178;7.570;2023-12-29T08:40:58;96610.03;;;9.64;100.00
47330;BME280;33060;50.178;7.570;2023-12-29T08:43:25;96605.41;;;10.03;100.00
47330;BME280;33060;50.178;7.570;2023-12-29T08:45:51;96604.13;;;10.08;100.00
47330;BME280;33060;50.178;7.570;2023-12-29T08:48:18;96603.94;;;9.99;100.00
47330;BME280;33060;50.178;7.570;2023-12-29T08:50:45;96611.09;;;9.85;100.00
47330;BME280;33060;50.178;7.570;2023-12-29T08:53:12;96601.16;;;9.89;100.00
47330;BME280;33060;50.178;7.570;2023-12-29T08:55:39;96605.22;;;10.17;100.00
47330;BME280;33060;50.178;7.570;2023-12-29T08:58:05;96617.63;;;10.04;100.00
47330;BME280;33060;50.178;7.570;2023-12-29T09:00:32;96614.28;;;9.78;100.00
47330;BME280;33060;50.178;7.570;2023-12-29T09:02:59;96619.16;;;9.95;100.00
47330;BME280;33060;50.178;7.570;2023-12-29T09:05:25;96602.53;;;10.41;100.00
47330;BME280;33060;50.178;7.570;2023-12-29T09:07:52;96618.59;;;10.14;100.00
47330;BME280;33060;50.178;7.570;2023-12-29T09:10:19;96610.69;;;10.38;100.00
47330;BME280;33060;50.178;7.570;2023-12-29T09:12:45;96610.91;;;10.35;100.00
47330;BME280;33060;50.178;7.570;2023-12-29T09:15:12;96605.28;;;10.04;100.00
47330;BME280;33060;50.178;7.570;2023-12-29T09:17:39;96601.56;;;10.31;100.00
47330;BME280;33060;50.178;7.570;2023-12-29T09:20:07;96605.81;;;10.20;100.00
47330;BME280;33060;50.178;7.570;2023-12-29T09:22:37;96607.06;;;9.93;100.00
47330;BME280;33060;50.178;7.570;2023-12-29T09:25:04;96620.81;;;9.96;100.00
47330;BME280;33060;50.178;7.570;2023-12-29T09:27:31;96616.47;;;10.19;100.00
47330;BME280;33060;50.178;7.570;2023-12-29T09:29:58;96613.81;;;10.08;100.00
47330;BME280;33060;50.178;7.570;2023-12-29T09:32:25;96618.00;;;10.10;100.00
47330;BME280;33060;50.178;7.570;2023-12-29T09:34:52;96611.97;;;9.97;100.00
47330;BME280;33060;50.178;7.570;2023-12-29T09:37:18;96615.78;;;9.93;100.00
47330;BME280;33060;50.178;7.570;2023-12-29T09:39:45;96632.16;;;10.09;100.00
47330;BME280;33060;50.178;7.570;2023-12-29T09:42:20;96641.19;;;9.94;100.00
47330;BME280;33060;50.178;7.570;2023-12-29T09:44:50;96636.59;;;10.20;100.00
47330;BME280;33060;50.178;7.570;2023-12-29T09:47:23;96649.47;;;10.01;100.00
47330;BME280;33060;50.178;7.570;2023-12-29T09:49:51;96645.88;;;10.02;100.00
47330;BME280;33060;50.178;7.570;2023-12-29T09:52:21;96641.81;;;10.33;100.00
47330;BME280;33060;50.178;7.570;2023-12-29T09:54:52;96651.03;;;10.27;100.00
47330;BME280;33060;50.178;7.570;2023-12-29T09:57:20;96660.31;;;10.20;100.00
47330;BME280;33060;50.178;7.570;2023-12-29T09:59:49;96664.66;;;9.97;100.00
47330;BME280;33060;50.178;7.570;2023-12-29T10:02:20;96659.66;;;9.81;100.00
47330;BME280;33060;50.178;7.570;2023-12-29T10:04:49;96657.81;;;9.95;100.00
47330;BME280;33060;50.178;7.570;2023-12-29T10:07:24;96668.41;;;10.06;100.00
47330;BME280;33060;50.178;7.570;2023-12-29T10:09:58;96672.13;;;10.27;100.00
47330;BME280;33060;50.178;7.570;2023-12-29T10:12:27;96665.66;;;10.07;100.00
47330;BME280;33060;50.178;7.570;2023-12-29T10:20:33;96673.63;;;10.42;100.00
47330;BME280;33060;50.178;7.570;2023-12-29T10:23:08;96660.19;;;10.10;100.00
47330;BME280;33060;50.178;7.570;2023-12-29T10:25:39;96665.06;;;10.04;100.00
47330;BME280;33060;50.178;7.570;2023-12-29T10:28:06;96656.56;;;10.35;100.00
47330;BME280;33060;50.178;7.570;2023-12-29T10:30:34;96655.59;;;9.77;100.00
47330;BME280;33060;50.178;7.570;2023-12-29T10:33:01;96655.59;;;10.25;100.00
47330;BME280;33060;50.178;7.570;2023-12-29T10:35:31;96654.41;;;10.05;100.00
47330;BME280;33060;50.178;7.570;2023-12-29T10:38:09;96664.22;;;10.03;100.00
47330;BME280;33060;50.178;7.570;2023-12-29T10:40:37;96658.13;;;10.38;100.00
47330;BME280;33060;50.178;7.570;2023-12-29T10:43:04;96652.97;;;10.12;100.00
47330;BME280;33060;50.178;7.570;2023-12-29T10:45:35;96656.47;;;10.48;100.00
47330;BME280;33060;50.178;7.570;2023-12-29T10:48:05;96669.91;;;10.56;100.00
47330;BME280;33060;50.178;7.570;2023-12-29T10:50:43;96661.06;;;10.68;100.00
47330;BME280;33060;50.178;7.570;2023-12-29T10:53:14;96661.47;;;10.40;100.00
47330;BME280;33060;50.178;7.570;2023-12-29T10:55:41;96660.88;;;10.36;100.00
47330;BME280;33060;50.178;7.570;2023-12-29T10:58:08;96648.22;;;10.53;100.00
47330;BME280;33060;50.178;7.570;2023-12-29T11:00:35;96643.91;;;10.74;100.00
47330;BME280;33060;50.178;7.570;2023-12-29T11:03:03;96653.84;;;10.48;100.00
47330;BME280;33060;50.178;7.570;2023-12-29T11:05:30;96648.34;;;10.62;100.00
47330;BME280;33060;50.178;7.570;2023-12-29T11:07:57;96657.09;;;10.52;100.00
47330;BME280;33060;50.178;7.570;2023-12-29T11:10:25;96661.28;;;10.54;100.00
47330;BME280;33060;50.178;7.570;2023-12-29T11:12:53;96654.41;;;10.29;100.00
47330;BME280;33060;50.178;7.570;2023-12-29T11:15:21;96652.97;;;10.25;100.00
47330;BME280;33060;50.178;7.570;2023-12-29T11:17:51;96655.66;;;10.59;100.00
47330;BME280;33060;50.178;7.570;2023-12-29T11:20:19;96653.03;;;10.70;100.00
47330;BME280;33060;50.178;7.570;2023-12-29T11:22:46;96651.22;;;10.59;100.00
47330;BME280;33060;50.178;7.570;2023-12-29T11:25:14;96642.59;;;10.57;100.00
47330;BME280;33060;50.178;7.570;2023-12-29T11:27:42;96645.31;;;10.44;100.00
47330;BME280;33060;50.178;7.570;2023-12-29T11:30:12;96633.38;;;10.52;100.00
47330;BME280;33060;50.178;7.570;2023-12-29T11:32:51;96641.03;;;10.55;100.00
47330;BME280;33060;50.178;7.570;2023-12-29T11:35:34;96619.41;;;10.38;100.00
47330;BME280;33060;50.178;7.570;2023-12-29T11:40:57;96620.19;;;10.96;100.00
47330;BME280;33060;50.178;7.570;2023-12-29T11:43:26;96610.00;;;10.69;100.00
47330;BME280;33060;50.178;7.570;2023-12-29T11:45:53;96607.38;;;10.81;100.00
47330;BME280;33060;50.178;7.570;2023-12-29T11:51:31;96603.41;;;10.86;100.00
47330;BME280;33060;50.178;7.570;2023-12-29T11:54:00;96605.81;;;10.78;100.00
47330;BME280;33060;50.178;7.570;2023-12-29T11:56:37;96604.09;;;10.43;100.00
47330;BME280;33060;50.178;7.570;2023-12-29T12:01:42;96609.72;;;10.39;100.00
47330;BME280;33060;50.178;7.570;2023-12-29T12:04:41;96608.19;;;10.81;100.00
47330;BME280;33060;50.178;7.570;2023-12-29T12:09:48;96598.84;;;10.55;100.00
47330;BME280;33060;50.178;7.570;2023-12-29T12:12:39;96580.25;;;10.67;100.00
47330;BME280;33060;50.178;7.570;2023-12-29T12:18:04;96590.22;;;10.97;100.00
47330;BME280;33060;50.178;7.570;2023-12-29T12:20:33;96586.13;;;11.04;100.00
47330;BME280;33060;50.178;7.570;2023-12-29T12:23:03;96591.91;;;10.87;100.00
47330;BME280;33060;50.178;7.570;2023-12-29T12:25:31;96594.28;;;10.79;100.00
47330;BME280;33060;50.178;7.570;2023-12-29T12:28:08;96597.28;;;10.74;100.00
47330;BME280;33060;50.178;7.570;2023-12-29T12:30:36;96589.81;;;11.02;100.00
47330;BME280;33060;50.178;7.570;2023-12-29T12:33:04;96601.25;;;10.69;100.00
47330;BME280;33060;50.178;7.570;2023-12-29T12:35:32;96592.25;;;10.83;100.00
47330;BME280;33060;50.178;7.570;2023-12-29T12:38:13;96586.00;;;10.84;100.00
47330;BME280;33060;50.178;7.570;2023-12-29T12:40:40;96586.84;;;10.62;100.00
47330;BME280;33060;50.178;7.570;2023-12-29T12:43:07;96585.19;;;10.61;100.00
47330;BME280;33060;50.178;7.570;2023-12-29T12:45:40;96585.75;;;10.42;100.00
47330;BME280;33060;50.178;7.570;2023-12-29T12:48:13;96589.41;;;10.17;100.00
47330;BME280;33060;50.178;7.570;2023-12-29T12:50:45;96574.88;;;10.80;100.00
47330;BME280;33060;50.178;7.570;2023-12-29T12:53:13;96579.88;;;10.50;100.00
47330;BME280;33060;50.178;7.570;2023-12-29T12:55:48;96571.50;;;10.67;100.00
47330;BME280;33060;50.178;7.570;2023-12-29T12:58:18;96574.13;;;10.67;100.00
47330;BME280;33060;50.178;7.570;2023-12-29T13:00:50;96575.16;;;10.19;100.00
47330;BME280;33060;50.178;7.570;2023-12-29T13:03:21;96578.69;;;10.54;100.00
47330;BME280;33060;50.178;7.570;2023-12-29T13:05:48;96570.66;;;10.44;100.00
47330;BME280;33060;50.178;7.570;2023-12-29T13:08:16;96575.44;;;10.39;100.00
47330;BME280;33060;50.178;7.570;2023-12-29T13:10:59;96574.75;;;10.13;100.00
47330;BME280;33060;50.178;7.570;2023-12-29T13:13:40;96578.53;;;10.33;100.00
47330;BME280;33060;50.178;7.570;2023-12-29T13:16:08;96589.63;;;10.14;100.00
47330;BME280;33060;50.178;7.570;2023-12-29T13:18:35;96574.53;;;10.16;100.00
47330;BME280;33060;50.178;7.570;2023-12-29T13:21:02;96568.63;;;10.36;100.00
47330;BME280;33060;50.178;7.570;2023-12-29T13:23:30;96564.66;;;10.42;100.00
47330;BME280;33060;50.178;7.570;2023-12-29T13:25:59;96561.16;;;10.30;100.00
47330;BME280;33060;50.178;7.570;2023-12-29T13:28:28;96557.09;;;10.26;100.00